sensor_id;sensor_type;location;lat;lon;timestamp;temperature;humidity
20418;DHT22;10368;51.436;6.774;2023-11-21T00:01:26;8.80;99.90
20418;DHT22;10368;51.436;6.774;2023-11-21T00:03:52;8.80;99.90
20418;DHT22;10368;51.436;6.774;2023-11-21T00:06:22;8.80;99.90
20418;DHT22;10368;51.436;6.774;2023-11-21T00:08:48;8.70;99.90
20418;DHT22;10368;51.436;6.774;2023-11-21T00:11:15;8.80;99.90
20418;DHT22;10368;51.436;6.774;2023-11-21T00:13:42;8.90;99.90
20418;DHT22;10368;51.436;6.774;2023-11-21T00:16:10;8.80;99.90
20418;DHT22;10368;51.436;6.774;2023-11-21T00:18:37;8.80;99.90
20418;DHT22;10368;51.436;6.774;2023-11-21T00:21:04;8.70;99.90
20418;DHT22;10368;51.436;6.774;2023-11-21T00:23:31;8.70;99.90
20418;DHT22;10368;51.436;6.774;2023-11-21T00:25:58;8.80;99.90
20418;DHT22;10368;51.436;6.774;2023-11-21T00:28:25;8.80;99.90
20418;DHT22;10368;51.436;6.774;2023-11-21T00:30:52;8.80;99.90
20418;DHT22;10368;51.436;6.774;2023-11-21T00:33:20;8.80;99.90
20418;DHT22;10368;51.436;6.774;2023-11-21T00:35:47;8.90;99.90
20418;DHT22;10368;51.436;6.774;2023-11-21T00:38:14;8.80;99.90
20418;DHT22;10368;51.436;6.774;2023-11-21T00:40:41;8.70;99.90
20418;DHT22;10368;51.436;6.774;2023-11-21T00:43:08;8.90;99.90
20418;DHT22;10368;51.436;6.774;2023-11-21T00:45:35;8.90;99.90
20418;DHT22;10368;51.436;6.774;2023-11-21T00:48:03;8.90;99.90
20418;DHT22;10368;51.436;6.774;2023-11-21T00:50:31;8.70;99.90
20418;DHT22;10368;51.436;6.774;2023-11-21T00:52:58;8.70;99.90
20418;DHT22;10368;51.436;6.774;2023-11-21T00:55:25;8.70;99.90
20418;DHT22;10368;51.436;6.774;2023-11-21T00:57:53;8.70;99.90
20418;DHT22;10368;51.436;6.774;2023-11-21T01:00:19;8.80;99.90
20418;DHT22;10368;51.436;6.774;2023-11-21T01:02:46;8.80;99.90
20418;DHT22;10368;51.436;6.774;2023-11-21T01:05:15;8.80;99.90
20418;DHT22;10368;51.436;6.774;2023-11-21T01:07:42;8.60;99.90
20418;DHT22;10368;51.436;6.774;2023-11-21T01:10:09;8.70;99.90
20418;DHT22;10368;51.436;6.774;2023-11-21T01:12:37;8.60;99.90
20418;DHT22;10368;51.436;6.774;2023-11-21T01:15:05;8.70;99.90
20418;DHT22;10368;51.436;6.774;2023-11-21T01:17:35;8.70;99.90
20418;DHT22;10368;51.436;6.774;2023-11-21T01:20:03;8.70;99.90
20418;DHT22;10368;51.436;6.774;2023-11-21T01:22:33;8.70;99.90
20418;DHT22;10368;51.436;6.774;2023-11-21T01:25:00;8.70;99.90
20418;DHT22;10368;51.436;6.774;2023-11-21T01:27:27;8.60;99.90
20418;DHT22;10368;51.436;6.774;2023-11-21T01:29:53;8.70;99.90
20418;DHT22;10368;51.436;6.774;2023-11-21T01:32:20;8.70;99.90
20418;DHT22;10368;51.436;6.774;2023-11-21T01:34:50;8.80;99.90
20418;DHT22;10368;51.436;6.774;2023-11-21T01:37:17;8.70;99.90
20418;DHT22;10368;51.436;6.774;2023-11-21T01:39:44;8.80;99.90
20418;DHT22;10368;51.436;6.774;2023-11-21T01:42:11;8.70;99.90
20418;DHT22;10368;51.436;6.774;2023-11-21T01:44:39;8.80;99.90
20418;DHT22;10368;51.436;6.774;2023-11-21T01:47:08;8.80;99.90
20418;DHT22;10368;51.436;6.774;2023-11-21T01:49:36;8.90;99.90
20418;DHT22;10368;51.436;6.774;2023-11-21T01:52:04;8.90;99.90
20418;DHT22;10368;51.436;6.774;2023-11-21T01:54:32;8.90;99.90
20418;DHT22;10368;51.436;6.774;2023-11-21T01:56:59;9.00;99.90
20418;DHT22;10368;51.436;6.774;2023-11-21T01:59:35;9.00;99.90
20418;DHT22;10368;51.436;6.774;2023-11-21T02:02:04;8.80;99.90
20418;DHT22;10368;51.436;6.774;2023-11-21T02:04:35;8.80;99.90
20418;DHT22;10368;51.436;6.774;2023-11-21T02:07:07;8.80;99.90
20418;DHT22;10368;51.436;6.774;2023-11-21T02:09:34;8.90;99.90
20418;DHT22;10368;51.436;6.774;2023-11-21T02:12:01;9.00;99.90
20418;DHT22;10368;51.436;6.774;2023-11-21T02:14:30;8.90;99.90
20418;DHT22;10368;51.436;6.774;2023-11-21T02:16:57;8.80;99.90
20418;DHT22;10368;51.436;6.774;2023-11-21T02:19:24;9.00;99.90
20418;DHT22;10368;51.436;6.774;2023-11-21T02:21:57;9.00;99.90
20418;DHT22;10368;51.436;6.774;2023-11-21T02:24:27;8.90;99.90
20418;DHT22;10368;51.436;6.774;2023-11-21T02:26:54;8.80;99.90
20418;DHT22;10368;51.436;6.774;2023-11-21T02:29:21;8.80;99.90
20418;DHT22;10368;51.436;6.774;2023-11-21T02:31:52;8.70;99.90
20418;DHT22;10368;51.436;6.774;2023-11-21T02:34:22;8.80;99.90
20418;DHT22;10368;51.436;6.774;2023-11-21T02:36:49;8.90;99.90
20418;DHT22;10368;51.436;6.774;2023-11-21T02:39:16;8.90;99.90
20418;DHT22;10368;51.436;6.774;2023-11-21T02:41:44;8.90;99.90
20418;DHT22;10368;51.436;6.774;2023-11-21T02:44:11;8.80;99.90
20418;DHT22;10368;51.436;6.774;2023-11-21T02:46:38;8.80;99.90
20418;DHT22;10368;51.436;6.774;2023-11-21T02:49:06;8.80;99.90
20418;DHT22;10368;51.436;6.774;2023-11-21T02:51:33;8.90;99.90
20418;DHT22;10368;51.436;6.774;2023-11-21T02:54:00;8.80;99.90
20418;DHT22;10368;51.436;6.774;2023-11-21T02:56:29;8.80;99.90
20418;DHT22;10368;51.436;6.774;2023-11-21T02:58:56;8.70;99.90
20418;DHT22;10368;51.436;6.774;2023-11-21T03:01:23;8.80;99.90
20418;DHT22;10368;51.436;6.774;2023-11-21T03:03:53;8.80;99.90
20418;DHT22;10368;51.436;6.774;2023-11-21T03:06:22;8.80;99.90
20418;DHT22;10368;51.436;6.774;2023-11-21T03:08:53;8.90;99.90
20418;DHT22;10368;51.436;6.774;2023-11-21T03:11:19;8.80;99.90
20418;DHT22;10368;51.436;6.774;2023-11-21T03:13:46;8.70;99.90
20418;DHT22;10368;51.436;6.774;2023-11-21T03:16:16;8.80;99.90
20418;DHT22;10368;51.436;6.774;2023-11-21T03:18:43;8.90;99.90
20418;DHT22;10368;51.436;6.774;2023-11-21T03:21:12;9.00;99.90
20418;DHT22;10368;51.436;6.774;2023-11-21T03:23:39;8.80;99.90
20418;DHT22;10368;51.436;6.774;2023-11-21T03:26:06;8.70;99.90
20418;DHT22;10368;51.436;6.774;2023-11-21T03:28:38;8.70;99.90
20418;DHT22;10368;51.436;6.774;2023-11-21T03:31:05;8.70;99.90
20418;DHT22;10368;51.436;6.774;2023-11-21T03:33:32;8.70;99.90
20418;DHT22;10368;51.436;6.774;2023-11-21T03:35:59;8.80;99.90
20418;DHT22;10368;51.436;6.774;2023-11-21T03:38:26;8.80;99.90
20418;DHT22;10368;51.436;6.774;2023-11-21T03:40:54;8.80;99.90
20418;DHT22;10368;51.436;6.774;2023-11-21T03:43:20;8.90;99.90
20418;DHT22;10368;51.436;6.774;2023-11-21T03:45:47;8.90;99.90
20418;DHT22;10368;51.436;6.774;2023-11-21T03:48:15;8.80;99.90
20418;DHT22;10368;51.436;6.774;2023-11-21T03:50:43;8.80;99.90
20418;DHT22;10368;51.436;6.774;2023-11-21T03:53:09;8.90;99.90
20418;DHT22;10368;51.436;6.774;2023-11-21T03:55:36;9.00;99.90
20418;DHT22;10368;51.436;6.774;2023-11-21T03:58:03;9.00;99.90
20418;DHT22;10368;51.436;6.774;2023-11-21T04:00:30;9.10;99.90
20418;DHT22;10368;51.436;6.774;2023-11-21T04:02:57;8.90;99.90
20418;DHT22;10368;51.436;6.774;2023-11-21T04:05:24;9.00;99.90
20418;DHT22;10368;51.436;6.774;2023-11-21T04:07:51;8.90;99.90
20418;DHT22;10368;51.436;6.774;2023-11-21T04:10:18;9.00;99.90
20418;DHT22;10368;51.436;6.774;2023-11-21T04:12:46;9.00;99.90
20418;DHT22;10368;51.436;6.774;2023-11-21T04:15:13;8.90;99.90
20418;DHT22;10368;51.436;6.774;2023-11-21T04:17:41;8.80;99.90
20418;DHT22;10368;51.436;6.774;2023-11-21T04:20:09;8.70;99.90
20418;DHT22;10368;51.436;6.774;2023-11-21T04:22:40;8.80;99.90
20418;DHT22;10368;51.436;6.774;2023-11-21T04:25:11;8.90;99.90
20418;DHT22;10368;51.436;6.774;2023-11-21T04:27:40;8.90;99.90
20418;DHT22;10368;51.436;6.774;2023-11-21T04:30:07;9.10;99.90
20418;DHT22;10368;51.436;6.774;2023-11-21T04:32:34;9.00;99.90
20418;DHT22;10368;51.436;6.774;2023-11-21T04:35:01;9.10;99.90
20418;DHT22;10368;51.436;6.774;2023-11-21T04:37:28;9.00;99.90
20418;DHT22;10368;51.436;6.774;2023-11-21T04:39:55;8.90;99.90
20418;DHT22;10368;51.436;6.774;2023-11-21T04:42:22;9.00;99.90
20418;DHT22;10368;51.436;6.774;2023-11-21T04:44:49;8.90;99.90
20418;DHT22;10368;51.436;6.774;2023-11-21T04:47:16;8.90;99.90
20418;DHT22;10368;51.436;6.774;2023-11-21T04:49:43;8.90;99.90
20418;DHT22;10368;51.436;6.774;2023-11-21T04:52:10;8.90;99.90
20418;DHT22;10368;51.436;6.774;2023-11-21T04:54:37;9.00;99.90
20418;DHT22;10368;51.436;6.774;2023-11-21T04:57:04;9.00;99.90
20418;DHT22;10368;51.436;6.774;2023-11-21T04:59:31;9.10;99.90
20418;DHT22;10368;51.436;6.774;2023-11-21T05:01:58;9.00;99.90
20418;DHT22;10368;51.436;6.774;2023-11-21T05:04:26;8.90;99.90
20418;DHT22;10368;51.436;6.774;2023-11-21T05:06:54;8.80;99.90
20418;DHT22;10368;51.436;6.774;2023-11-21T05:09:20;8.80;99.90
20418;DHT22;10368;51.436;6.774;2023-11-21T05:11:49;8.80;99.90
20418;DHT22;10368;51.436;6.774;2023-11-21T05:14:15;8.90;99.90
20418;DHT22;10368;51.436;6.774;2023-11-21T05:16:42;8.90;99.90
20418;DHT22;10368;51.436;6.774;2023-11-21T05:19:09;8.80;99.90
20418;DHT22;10368;51.436;6.774;2023-11-21T05:21:36;8.90;99.90
20418;DHT22;10368;51.436;6.774;2023-11-21T05:24:03;8.90;99.90
20418;DHT22;10368;51.436;6.774;2023-11-21T05:26:30;8.90;99.90
20418;DHT22;10368;51.436;6.774;2023-11-21T05:28:57;8.80;99.90
20418;DHT22;10368;51.436;6.774;2023-11-21T05:31:24;8.80;99.90
20418;DHT22;10368;51.436;6.774;2023-11-21T05:33:51;8.80;99.90
20418;DHT22;10368;51.436;6.774;2023-11-21T05:36:18;8.80;99.90
20418;DHT22;10368;51.436;6.774;2023-11-21T05:38:44;8.80;99.90
20418;DHT22;10368;51.436;6.774;2023-11-21T05:41:12;8.70;99.90
20418;DHT22;10368;51.436;6.774;2023-11-21T05:43:40;8.80;99.90
20418;DHT22;10368;51.436;6.774;2023-11-21T05:46:07;8.80;99.90
20418;DHT22;10368;51.436;6.774;2023-11-21T05:48:35;8.70;99.90
20418;DHT22;10368;51.436;6.774;2023-11-21T05:51:07;8.70;99.90
20418;DHT22;10368;51.436;6.774;2023-11-21T05:53:35;8.60;99.90
20418;DHT22;10368;51.436;6.774;2023-11-21T05:56:02;8.70;99.90
20418;DHT22;10368;51.436;6.774;2023-11-21T05:58:30;8.70;99.90
20418;DHT22;10368;51.436;6.774;2023-11-21T06:00:57;8.60;99.90
20418;DHT22;10368;51.436;6.774;2023-11-21T06:03:24;8.60;99.90
20418;DHT22;10368;51.436;6.774;2023-11-21T06:05:52;8.50;99.90
20418;DHT22;10368;51.436;6.774;2023-11-21T06:08:19;8.50;99.90
20418;DHT22;10368;51.436;6.774;2023-11-21T06:10:45;8.40;99.90
20418;DHT22;10368;51.436;6.774;2023-11-21T06:13:15;8.30;99.90
20418;DHT22;10368;51.436;6.774;2023-11-21T06:15:43;8.40;99.90
20418;DHT22;10368;51.436;6.774;2023-11-21T06:18:10;8.40;99.90
20418;DHT22;10368;51.436;6.774;2023-11-21T06:20:41;8.50;99.90
20418;DHT22;10368;51.436;6.774;2023-11-21T06:23:07;8.40;99.90
20418;DHT22;10368;51.436;6.774;2023-11-21T06:25:35;8.40;99.90
20418;DHT22;10368;51.436;6.774;2023-11-21T06:28:03;8.40;99.90
20418;DHT22;10368;51.436;6.774;2023-11-21T06:30:30;8.40;99.90
20418;DHT22;10368;51.436;6.774;2023-11-21T06:32:57;8.40;99.90
20418;DHT22;10368;51.436;6.774;2023-11-21T06:35:24;8.30;99.90
20418;DHT22;10368;51.436;6.774;2023-11-21T06:37:51;8.40;99.90
20418;DHT22;10368;51.436;6.774;2023-11-21T06:40:19;8.30;99.90
20418;DHT22;10368;51.436;6.774;2023-11-21T06:42:47;8.40;99.90
20418;DHT22;10368;51.436;6.774;2023-11-21T06:45:15;8.50;99.90
20418;DHT22;10368;51.436;6.774;2023-11-21T06:47:42;8.40;99.90
20418;DHT22;10368;51.436;6.774;2023-11-21T06:50:10;8.40;99.90
20418;DHT22;10368;51.436;6.774;2023-11-21T06:52:36;8.40;99.90
20418;DHT22;10368;51.436;6.774;2023-11-21T06:55:04;8.30;99.90
20418;DHT22;10368;51.436;6.774;2023-11-21T06:57:31;8.30;99.90
20418;DHT22;10368;51.436;6.774;2023-11-21T06:59:58;8.30;99.90
20418;DHT22;10368;51.436;6.774;2023-11-21T07:02:25;8.30;99.90
20418;DHT22;10368;51.436;6.774;2023-11-21T07:04:52;8.30;99.90
20418;DHT22;10368;51.436;6.774;2023-11-21T07:07:19;8.40;99.90
20418;DHT22;10368;51.436;6.774;2023-11-21T07:09:46;8.40;99.90
20418;DHT22;10368;51.436;6.774;2023-11-21T07:12:15;8.40;99.90
20418;DHT22;10368;51.436;6.774;2023-11-21T07:14:41;8.40;99.90
20418;DHT22;10368;51.436;6.774;2023-11-21T07:17:11;8.40;99.90
20418;DHT22;10368;51.436;6.774;2023-11-21T07:19:38;8.40;99.90
20418;DHT22;10368;51.436;6.774;2023-11-21T07:22:06;8.40;99.90
20418;DHT22;10368;51.436;6.774;2023-11-21T07:24:33;8.40;99.90
20418;DHT22;10368;51.436;6.774;2023-11-21T07:26:59;8.40;99.90
20418;DHT22;10368;51.436;6.774;2023-11-21T07:29:27;8.40;99.90
20418;DHT22;10368;51.436;6.774;2023-11-21T07:31:56;8.40;99.90
20418;DHT22;10368;51.436;6.774;2023-11-21T07:34:23;8.40;99.90
20418;DHT22;10368;51.436;6.774;2023-11-21T07:36:50;8.50;99.90
20418;DHT22;10368;51.436;6.774;2023-11-21T07:39:17;8.60;99.90
20418;DHT22;10368;51.436;6.774;2023-11-21T07:41:44;8.60;99.90
20418;DHT22;10368;51.436;6.774;2023-11-21T07:44:18;8.60;99.90
20418;DHT22;10368;51.436;6.774;2023-11-21T07:46:46;8.60;99.90
20418;DHT22;10368;51.436;6.774;2023-11-21T07:49:14;8.60;99.90
20418;DHT22;10368;51.436;6.774;2023-11-21T07:51:47;8.60;99.90
20418;DHT22;10368;51.436;6.774;2023-11-21T07:54:14;8.70;99.90
20418;DHT22;10368;51.436;6.774;2023-11-21T07:56:42;8.80;99.90
20418;DHT22;10368;51.436;6.774;2023-11-21T07:59:09;8.80;99.90
20418;DHT22;10368;51.436;6.774;2023-11-21T08:01:36;8.80;99.90
20418;DHT22;10368;51.436;6.774;2023-11-21T08:04:03;8.90;99.90
20418;DHT22;10368;51.436;6.774;2023-11-21T08:06:31;8.80;99.90
20418;DHT22;10368;51.436;6.774;2023-11-21T08:08:59;8.70;99.90
20418;DHT22;10368;51.436;6.774;2023-11-21T08:11:26;8.70;99.90
20418;DHT22;10368;51.436;6.774;2023-11-21T08:13:56;8.70;99.90
20418;DHT22;10368;51.436;6.774;2023-11-21T08:16:23;8.70;99.90
20418;DHT22;10368;51.436;6.774;2023-11-21T08:18:51;8.80;99.90
20418;DHT22;10368;51.436;6.774;2023-11-21T08:21:18;8.70;99.90
20418;DHT22;10368;51.436;6.774;2023-11-21T08:23:45;8.60;99.90
20418;DHT22;10368;51.436;6.774;2023-11-21T08:26:16;8.60;99.90
20418;DHT22;10368;51.436;6.774;2023-11-21T08:28:43;8.70;99.90
20418;DHT22;10368;51.436;6.774;2023-11-21T08:31:10;8.70;99.90
20418;DHT22;10368;51.436;6.774;2023-11-21T08:33:40;8.60;99.90
20418;DHT22;10368;51.436;6.774;2023-11-21T08:36:10;8.70;99.90
20418;DHT22;10368;51.436;6.774;2023-11-21T08:38:38;8.80;99.90
20418;DHT22;10368;51.436;6.774;2023-11-21T08:41:06;8.80;99.90
20418;DHT22;10368;51.436;6.774;2023-11-21T08:43:37;8.80;99.90
20418;DHT22;10368;51.436;6.774;2023-11-21T08:46:07;8.80;99.90
20418;DHT22;10368;51.436;6.774;2023-11-21T08:48:36;8.90;99.90
20418;DHT22;10368;51.436;6.774;2023-11-21T08:51:04;8.90;99.90
20418;DHT22;10368;51.436;6.774;2023-11-21T08:53:31;8.90;99.90
20418;DHT22;10368;51.436;6.774;2023-11-21T08:55:58;8.90;99.90
20418;DHT22;10368;51.436;6.774;2023-11-21T08:58:26;9.00;99.90
20418;DHT22;10368;51.436;6.774;2023-11-21T09:00:53;9.00;99.90
20418;DHT22;10368;51.436;6.774;2023-11-21T09:03:20;9.00;99.90
20418;DHT22;10368;51.436;6.774;2023-11-21T09:05:47;9.00;99.90
20418;DHT22;10368;51.436;6.774;2023-11-21T09:08:14;9.10;99.90
20418;DHT22;10368;51.436;6.774;2023-11-21T09:10:40;9.10;99.90
20418;DHT22;10368;51.436;6.774;2023-11-21T09:13:09;9.20;99.90
20418;DHT22;10368;51.436;6.774;2023-11-21T09:15:36;9.10;99.90
20418;DHT22;10368;51.436;6.774;2023-11-21T09:18:04;9.10;99.90
20418;DHT22;10368;51.436;6.774;2023-11-21T09:20:31;9.10;99.90
20418;DHT22;10368;51.436;6.774;2023-11-21T09:22:58;9.10;99.90
20418;DHT22;10368;51.436;6.774;2023-11-21T09:25:25;9.20;99.90
20418;DHT22;10368;51.436;6.774;2023-11-21T09:27:53;9.30;99.90
20418;DHT22;10368;51.436;6.774;2023-11-21T09:30:19;9.30;99.90
20418;DHT22;10368;51.436;6.774;2023-11-21T09:32:46;9.30;99.90
20418;DHT22;10368;51.436;6.774;2023-11-21T09:35:14;9.30;99.90
20418;DHT22;10368;51.436;6.774;2023-11-21T09:37:42;9.30;99.90
20418;DHT22;10368;51.436;6.774;2023-11-21T09:40:11;9.30;99.90
20418;DHT22;10368;51.436;6.774;2023-11-21T09:42:55;9.30;99.90
20418;DHT22;10368;51.436;6.774;2023-11-21T09:45:29;9.20;99.90
20418;DHT22;10368;51.436;6.774;2023-11-21T09:48:01;9.30;99.90
20418;DHT22;10368;51.436;6.774;2023-11-21T09:50:28;9.30;99.90
20418;DHT22;10368;51.436;6.774;2023-11-21T09:53:16;9.30;99.90
20418;DHT22;10368;51.436;6.774;2023-11-21T09:55:46;9.30;99.90
20418;DHT22;10368;51.436;6.774;2023-11-21T09:58:14;9.40;99.90
20418;DHT22;10368;51.436;6.774;2023-11-21T10:00:45;9.30;99.90
20418;DHT22;10368;51.436;6.774;2023-11-21T10:03:13;9.40;99.90
20418;DHT22;10368;51.436;6.774;2023-11-21T10:05:45;9.40;99.90
20418;DHT22;10368;51.436;6.774;2023-11-21T10:08:15;9.50;99.90
20418;DHT22;10368;51.436;6.774;2023-11-21T10:10:46;9.40;99.90
20418;DHT22;10368;51.436;6.774;2023-11-21T10:13:17;9.40;99.90
20418;DHT22;10368;51.436;6.774;2023-11-21T10:15:50;9.40;99.90
20418;DHT22;10368;51.436;6.774;2023-11-21T10:18:17;9.60;99.90
20418;DHT22;10368;51.436;6.774;2023-11-21T10:20:45;9.50;99.90
20418;DHT22;10368;51.436;6.774;2023-11-21T10:23:21;9.50;99.90
20418;DHT22;10368;51.436;6.774;2023-11-21T10:25:53;9.60;99.90
20418;DHT22;10368;51.436;6.774;2023-11-21T10:28:24;9.60;99.90
20418;DHT22;10368;51.436;6.774;2023-11-21T10:30:50;9.70;99.90
20418;DHT22;10368;51.436;6.774;2023-11-21T10:33:27;9.70;99.90
20418;DHT22;10368;51.436;6.774;2023-11-21T10:35:56;9.80;99.90
20418;DHT22;10368;51.436;6.774;2023-11-21T10:38:22;9.80;99.90
20418;DHT22;10368;51.436;6.774;2023-11-21T10:40:51;9.80;99.90
20418;DHT22;10368;51.436;6.774;2023-11-21T10:43:18;9.70;99.90
20418;DHT22;10368;51.436;6.774;2023-11-21T10:45:46;9.80;99.90
20418;DHT22;10368;51.436;6.774;2023-11-21T10:48:14;9.90;99.90
20418;DHT22;10368;51.436;6.774;2023-11-21T10:50:46;10.00;99.90
20418;DHT22;10368;51.436;6.774;2023-11-21T10:53:13;10.00;99.90
20418;DHT22;10368;51.436;6.774;2023-11-21T10:55:41;10.00;99.90
20418;DHT22;10368;51.436;6.774;2023-11-21T10:58:10;10.00;99.90
20418;DHT22;10368;51.436;6.774;2023-11-21T11:00:40;10.10;99.90
20418;DHT22;10368;51.436;6.774;2023-11-21T11:03:07;10.10;99.90
20418;DHT22;10368;51.436;6.774;2023-11-21T11:05:42;10.10;99.90
20418;DHT22;10368;51.436;6.774;2023-11-21T11:08:12;10.30;99.90
20418;DHT22;10368;51.436;6.774;2023-11-21T11:10:39;10.40;99.90
20418;DHT22;10368;51.436;6.774;2023-11-21T11:13:07;10.40;99.90
20418;DHT22;10368;51.436;6.774;2023-11-21T11:15:34;10.40;99.90
20418;DHT22;10368;51.436;6.774;2023-11-21T11:18:02;10.30;99.90
20418;DHT22;10368;51.436;6.774;2023-11-21T11:20:35;10.20;99.90
20418;DHT22;10368;51.436;6.774;2023-11-21T11:23:17;10.10;99.90
20418;DHT22;10368;51.436;6.774;2023-11-21T11:28:57;10.40;99.90
20418;DHT22;10368;51.436;6.774;2023-11-21T11:32:01;10.30;99.90
20418;DHT22;10368;51.436;6.774;2023-11-21T11:34:54;10.20;99.90
20418;DHT22;10368;51.436;6.774;2023-11-21T11:37:24;10.10;99.90
20418;DHT22;10368;51.436;6.774;2023-11-21T11:39:51;10.10;99.90
20418;DHT22;10368;51.436;6.774;2023-11-21T11:42:18;10.10;99.90
20418;DHT22;10368;51.436;6.774;2023-11-21T11:44:47;10.10;99.90
20418;DHT22;10368;51.436;6.774;2023-11-21T11:47:33;10.00;99.90
20418;DHT22;10368;51.436;6.774;2023-11-21T11:52:46;10.20;99.90
20418;DHT22;10368;51.436;6.774;2023-11-21T11:55:15;10.20;99.90
20418;DHT22;10368;51.436;6.774;2023-11-21T11:57:46;10.30;99.90
20418;DHT22;10368;51.436;6.774;2023-11-21T12:02:56;10.40;99.90
20418;DHT22;10368;51.436;6.774;2023-11-21T12:05:27;10.40;99.90
20418;DHT22;10368;51.436;6.774;2023-11-21T12:07:57;10.40;99.90
20418;DHT22;10368;51.436;6.774;2023-11-21T12:10:36;10.40;99.90
20418;DHT22;10368;51.436;6.774;2023-11-21T12:13:08;10.50;99.90
20418;DHT22;10368;51.436;6.774;2023-11-21T12:15:36;10.50;99.90
20418;DHT22;10368;51.436;6.774;2023-11-21T12:18:04;10.70;99.90
20418;DHT22;10368;51.436;6.774;2023-11-21T12:20:32;10.60;99.90
20418;DHT22;10368;51.436;6.774;2023-11-21T12:23:05;10.70;99.90
20418;DHT22;10368;51.436;6.774;2023-11-21T12:25:32;10.90;99.90
20418;DHT22;10368;51.436;6.774;2023-11-21T12:28:01;10.70;99.90
20418;DHT22;10368;51.436;6.774;2023-11-21T12:30:31;10.60;99.90
20418;DHT22;10368;51.436;6.774;2023-11-21T12:32:59;10.80;99.90
20418;DHT22;10368;51.436;6.774;2023-11-21T12:35:33;10.70;99.90
20418;DHT22;10368;51.436;6.774;2023-11-21T12:38:04;10.70;99.90
20418;DHT22;10368;51.436;6.774;2023-11-21T12:40:35;10.80;99.90
20418;DHT22;10368;51.436;6.774;2023-11-21T12:43:03;10.70;99.90
20418;DHT22;10368;51.436;6.774;2023-11-21T12:45:31;10.80;99.90
20418;DHT22;10368;51.436;6.774;2023-11-21T12:48:03;10.70;99.90
20418;DHT22;10368;51.436;6.774;2023-11-21T12:50:35;10.60;99.90
20418;DHT22;10368;51.436;6.774;2023-11-21T12:55:33;10.40;99.90
20418;DHT22;10368;51.436;6.774;2023-11-21T12:58:06;10.30;99.90
20418;DHT22;10368;51.436;6.774;2023-11-21T13:00:40;10.30;99.90
20418;DHT22;10368;51.436;6.774;2023-11-21T13:03:10;10.30;99.90
20418;DHT22;10368;51.436;6.774;2023-11-21T13:05:41;10.30;99.90
20418;DHT22;10368;51.436;6.774;2023-11-21T13:08:17;10.20;99.90
20418;DHT22;10368;51.436;6.774;2023-11-21T13:10:54;10.20;99.90
20418;DHT22;10368;51.436;6.774;2023-11-21T13:13:23;10.20;99.90
20418;DHT22;10368;51.436;6.774;2023-11-21T13:15:53;10.10;99.90
20418;DHT22;10368;51.436;6.774;2023-11-21T13:18:24;10.10;99.90
20418;DHT22;10368;51.436;6.774;2023-11-21T13:20:55;10.20;99.90
20418;DHT22;10368;51.436;6.774;2023-11-21T13:23:22;10.10;99.90
20418;DHT22;10368;51.436;6.774;2023-11-21T13:25:50;10.00;99.90
20418;DHT22;10368;51.436;6.774;2023-11-21T13:28:28;10.00;99.90
20418;DHT22;10368;51.436;6.774;2023-11-21T13:30:59;9.90;99.90
20418;DHT22;10368;51.436;6.774;2023-11-21T13:33:36;9.90;99.90
20418;DHT22;10368;51.436;6.774;2023-11-21T13:36:08;9.90;99.90
20418;DHT22;10368;51.436;6.774;2023-11-21T13:38:37;9.90;99.90
20418;DHT22;10368;51.436;6.774;2023-11-21T13:41:09;9.90;99.90
20418;DHT22;10368;51.436;6.774;2023-11-21T13:43:37;9.80;99.90
20418;DHT22;10368;51.436;6.774;2023-11-21T13:46:05;9.80;99.90
20418;DHT22;10368;51.436;6.774;2023-11-21T13:48:40;9.90;99.90
20418;DHT22;10368;51.436;6.774;2023-11-21T13:51:09;9.90;99.90
20418;DHT22;10368;51.436;6.774;2023-11-21T13:53:48;10.00;99.90
20418;DHT22;10368;51.436;6.774;2023-11-21T13:56:18;10.00;99.90
20418;DHT22;10368;51.436;6.774;2023-11-21T13:58:47;10.00;99.90
20418;DHT22;10368;51.436;6.774;2023-11-21T14:01:19;10.10;99.90
20418;DHT22;10368;51.436;6.774;2023-11-21T14:04:15;10.10;99.90
20418;DHT22;10368;51.436;6.774;2023-11-21T14:06:43;10.00;99.90
20418;DHT22;10368;51.436;6.774;2023-11-21T14:09:16;10.00;99.90
20418;DHT22;10368;51.436;6.774;2023-11-21T14:11:54;10.00;99.90
20418;DHT22;10368;51.436;6.774;2023-11-21T14:14:24;9.90;99.90
20418;DHT22;10368;51.436;6.774;2023-11-21T14:16:52;10.00;99.90
20418;DHT22;10368;51.436;6.774;2023-11-21T14:19:19;10.00;99.90
20418;DHT22;10368;51.436;6.774;2023-11-21T14:21:47;9.90;99.90
20418;DHT22;10368;51.436;6.774;2023-11-21T14:24:15;10.00;99.90
20418;DHT22;10368;51.436;6.774;2023-11-21T14:26:46;10.00;99.90
20418;DHT22;10368;51.436;6.774;2023-11-21T14:29:17;10.00;99.90
20418;DHT22;10368;51.436;6.774;2023-11-21T14:31:47;10.00;99.90
20418;DHT22;10368;51.436;6.774;2023-11-21T14:34:15;10.00;99.90
20418;DHT22;10368;51.436;6.774;2023-11-21T14:36:47;10.00;99.90
20418;DHT22;10368;51.436;6.774;2023-11-21T14:39:14;10.00;99.90
20418;DHT22;10368;51.436;6.774;2023-11-21T14:41:51;10.10;99.90
20418;DHT22;10368;51.436;6.774;2023-11-21T14:44:20;10.00;99.90
20418;DHT22;10368;51.436;6.774;2023-11-21T14:46:50;9.90;99.90
20418;DHT22;10368;51.436;6.774;2023-11-21T14:49:18;10.00;99.90
20418;DHT22;10368;51.436;6.774;2023-11-21T14:51:53;9.90;99.90
20418;DHT22;10368;51.436;6.774;2023-11-21T14:54:31;10.00;99.90
20418;DHT22;10368;51.436;6.774;2023-11-21T14:57:12;9.80;99.90
20418;DHT22;10368;51.436;6.774;2023-11-21T14:59:44;9.90;99.90
20418;DHT22;10368;51.436;6.774;2023-11-21T15:02:18;9.80;99.90
20418;DHT22;10368;51.436;6.774;2023-11-21T15:04:49;9.80;99.90
20418;DHT22;10368;51.436;6.774;2023-11-21T15:07:19;9.80;99.90
20418;DHT22;10368;51.436;6.774;2023-11-21T15:09:47;9.80;99.90
20418;DHT22;10368;51.436;6.774;2023-11-21T15:12:16;9.80;99.90
20418;DHT22;10368;51.436;6.774;2023-11-21T15:14:52;9.80;99.90
20418;DHT22;10368;51.436;6.774;2023-11-21T15:17:20;9.80;99.90
20418;DHT22;10368;51.436;6.774;2023-11-21T15:19:53;9.80;99.90
20418;DHT22;10368;51.436;6.774;2023-11-21T15:22:20;9.80;99.90
20418;DHT22;10368;51.436;6.774;2023-11-21T15:24:48;9.70;99.90
20418;DHT22;10368;51.436;6.774;2023-11-21T15:27:16;9.70;99.90
20418;DHT22;10368;51.436;6.774;2023-11-21T15:29:43;9.80;99.90
20418;DHT22;10368;51.436;6.774;2023-11-21T15:32:12;9.70;99.90
20418;DHT22;10368;51.436;6.774;2023-11-21T15:34:39;9.60;99.90
20418;DHT22;10368;51.436;6.774;2023-11-21T15:37:07;9.70;99.90
20418;DHT22;10368;51.436;6.774;2023-11-21T15:39:38;9.70;99.90
20418;DHT22;10368;51.436;6.774;2023-11-21T15:42:06;9.60;99.90
20418;DHT22;10368;51.436;6.774;2023-11-21T15:44:36;9.50;99.90
20418;DHT22;10368;51.436;6.774;2023-11-21T15:47:04;9.50;99.90
20418;DHT22;10368;51.436;6.774;2023-11-21T15:49:31;9.60;99.90
20418;DHT22;10368;51.436;6.774;2023-11-21T15:52:03;9.70;99.90
20418;DHT22;10368;51.436;6.774;2023-11-21T15:54:32;9.60;99.90
20418;DHT22;10368;51.436;6.774;2023-11-21T15:57:01;9.50;99.90
20418;DHT22;10368;51.436;6.774;2023-11-21T15:59:29;9.50;99.90
20418;DHT22;10368;51.436;6.774;2023-11-21T16:02:00;9.50;99.90
20418;DHT22;10368;51.436;6.774;2023-11-21T16:04:28;9.40;99.90